Strona główna
METAR-TAF:

METAR-TAF

Lotnisko :

Lawrence Municipal Airport

Lawrence, Massachusetts, Stany Zjednoczone

Szerokość geograficzna: 42-42-47N, Długość geograficzna: 071-07-33W, wysokość: 45 m

Aktualna obserwacja pogody

Raport powstał 16 minut temu, godzina 03:40 UTC
Wiatr 16 kt od północny wschód w porywach dochodzący do 23 kt
Temperatura 6°C
Wilgotność 93%
Ciśnienie 1013 hPa
Widzialność: 3.2 km
Przerywane chmury na wysokości 1200 ft
Zachmurzenie całkowite na wysokości 1900 ft
słaby deszcz, zamglenie

METAR: KLWM 040340Z AUTO 04016G23KT 2SM -RA BR BKN012 OVC019 06/05 A2992 RMK AO2 P0003 T00610050

czas: 23:56 (03:56 UTC)


TAF: brakujący

Obserwacja i prognoza pogody dla ponad 4000 lotnisk (raport METAR i TAF).

Dostępne stacje oznaczono żółtymi i czerwonymi punktami na mapie.

Najedź kursorem aby zobaczyć nazwę stacji.

Kliknij aby zobaczyć obserwacje i prognozy pogody.

Aby zmienić mapę: kliknij na zielony przycisk z czarnym krzyżykiem, aby powiększyć; na zielony przycisk z myślnikiem, aby pomniejszyć; na zielone strzałki, aby przejść do map sąsiednich.


METAR-TAF: